Page, AZ

5:35 AM MST on February 19, 2017 (GMT -0700)
grandview st | | Change Station

Elev 4275 ft 36.93 °N, 111.46 °W | Updated 43 seconds ago

Light Rain
Light Rain
42.3 °F
Feels Like 42 °F
N
0.0
Wind Variable Wind from SSE

Today
High -- | Low -- °F
--% Chance of Precip.
Yesterday
High -- | Low -- °F
Precip. -- in
Pressure 29.64 in
Visibility 8.0 miles
Clouds Overcast 4300 ft
Windchill 42 °F
Dew Point 39 °F
Humidity 88%
Rainfall 0.09 in
Snow Depth Not available.
7:09 AM 6:10 PM
Last Quarter, 43% visible
METAR KPGA 191153Z AUTO 00000KT 8SM -RA OVC043 07/02 A2970 RMK AO2 RAB13 SLP037 P0004 60004 70007 T00670022 10083 20067 55000 TSNO
Pressure 29.64 in
Visibility 8.0 miles
Clouds Overcast 4300 ft
Windchill 42 °F
Dew Point 39 °F
Humidity 88%
Rainfall 0.09 in
Snow Depth Not available.
7:09 AM 6:10 PM
Last Quarter, 43% visible
METAR KPGA 191153Z AUTO 00000KT 8SM -RA OVC043 07/02 A2970 RMK AO2 RAB13 SLP037 P0004 60004 70007 T00670022 10083 20067 55000 TSNO

Get Your Daily Forecast Email!

Thanks for signing up!

Be on the lookout for a verification email in your inbox.

You'll start receiving the daily forecast at 8 AM.

×

10-Day Weather Forecast

Almanac

Astronomy

Feb. 19, 2017 Rise Set
Actual Time
Civil Twilight
Nautical Twilight
Astronomical Twilight
Moon
Length of Visible Light
Length of Day
Tomorrow will be .
, % of the Moon is Illuminated

Today's Extremes

State Highs State Lows

Community

WunderPhotos

Upload Photos

1,962,540 photos uploaded!

WunderBlog® & News

Nearby

Air Quality

  Air Quality AQ Index Pollutant
Not available.

Snow Depth

Station Depth Elevation

Earthquake Activity

City Distance Mag. Time & Date
Minimum magnitude displayed is 2.5.

Coastal Water Temperatures

Place Temperature

Stations

Nearby Weather Stations

Station Location Temp. Windchill Dew Point Humidity Wind Precip. Elev Updated Type
                   

Watches & Warnings

There are currently no watches in effect.